Nearby METAR Reports

 

EGNX - East Midlands, United Kingdom
Distance from station: SW 12mi, 19km
Updated: 25/01/2021 16:20
Few Clouds
Few Clouds
 Wind from W
Wind: W 17 km/h
Temperature: 2°C
Wind Chill: -2°C
Dew Point: 0°C
Humidity: 87%
Barometer: 1011 hPa
Clouds: Few Clouds
Visibility: 10 km
Cloud details: Few Clouds 671 m
2021/01/25 16:20 EGNX 251620Z 26009KT 9999 FEW022 02/00 Q1011
EGYE - Barkston Heath R, United Kingdom
Distance from station: E 24mi, 39km
Updated: 25/01/2021 08:50
NOT Current
Clear
Clear
 Wind from varies
Wind: varies 0 km/h
Barometer: 1005 hPa
Summary: Clear
Visibility: greater than 10 km
2021/01/25 08:50 EGYE 250850Z /////KT CAVOK ///// Q1005 RMK BLACLBLU
 
EGYD - Cranwell Raf, United Kingdom
Distance from station: ENE 28mi, 44km
Updated: 25/01/2021 15:50
Mostly cloudy
Mostly cloudy
 Wind from WNW
Wind: WNW 28 km/h
Temperature: 5°C
Wind Chill: 1°C
Dew Point: 0°C
Humidity: 70%
Barometer: 1009 hPa
Clouds: Mostly cloudy
Visibility: 10 km
Cloud details: Mostly cloudy 1829 m
2021/01/25 15:50 EGYD 251550Z AUTO 29015KT 9999 // BKN060/// 05/M00 Q1009
EGXW - Waddington Raf, United Kingdom
Distance from station: ENE 31mi, 50km
Updated: 25/01/2021 16:20
Few Clouds
Few Clouds
 Wind from W
Wind: W 24 km/h
Temperature: 4°C
Wind Chill: -1°C
Dew Point: -1°C
Humidity: 70%
Barometer: 1009 hPa
Clouds: Few Clouds
Visibility: 10 km
Cloud details: Few Clouds 884 m
2021/01/25 16:20 EGXW 251620Z 28013KT 9999 FEW029 04/M01 Q1009 NOSIG RMK BLU BLU
 
EGSY - Yorkshire/Humber, United Kingdom
Distance from station: NNW 33mi, 52km
Updated: 25/01/2021 16:20
Few Clouds
Few Clouds
 Wind from WNW
Wind: WNW 13 km/h
Temperature: 4°C
Wind Chill: 1°C
Dew Point: 0°C
Humidity: 75%
Barometer: 1014 hPa
Clouds: Few Clouds
Visibility: 10 km
Cloud details: Few Clouds 1067 m
2021/01/25 16:20 EGSY 251620Z 29007KT 9999 FEW035 04/00 Q1014
EGXP - Scampton Raf, United Kingdom
Distance from station: NE 35mi, 56km
Updated: 25/01/2021 15:50
Clear
Clear
 Wind from WNW
Wind: WNW 24 km/h
Temperature: 4°C
Wind Chill: -1°C
Dew Point: 1°C
Humidity: 81%
Barometer: 1008 hPa
Summary: Clear
Visibility: greater than 10 km
2021/01/25 15:50 EGXP 251550Z 29013KT CAVOK 04/01 Q1008
 
EGXT - Wittering Raf, United Kingdom
Distance from station: SE 37mi, 59km
Updated: 25/01/2021 15:50
Clear
Clear
 Wind from W
Wind: W 30 km/h
Temperature: 2°C
Wind Chill: -3°C
Dew Point: -1°C
Humidity: 81%
Barometer: 1009 hPa
Clouds: Clear
Visibility: 10 km
2021/01/25 15:50 EGXT 251550Z AUTO 26016KT 9999 NCD 02/M01 Q1009
EGCN - Doncaster Sheffi, United Kingdom
Distance from station: N 37mi, 60km
Updated: 25/01/2021 16:20
Few Clouds
Few Clouds
 Wind from WNW
Wind: WNW 20 km/h
Temperature: 4°C
Wind Chill: -1°C
Dew Point: 0°C
Humidity: 75%
Barometer: 1010 hPa
Clouds: Few Clouds
Visibility: 10 km
Cloud details: Few Clouds 701 m
2021/01/25 16:20 EGCN 251620Z 29011KT 9999 FEW023 04/00 Q1010
 
EGBB - Birmingham Airpo, United Kingdom
Distance from station: SW 42mi, 67km
Updated: 25/01/2021 16:20
Clear
Clear
 Wind from WSW
Wind: WSW 9 km/h
Temperature: 3°C
Wind Chill: 0°C
Dew Point: -1°C
Humidity: 75%
Barometer: 1012 hPa
Summary: Clear
Visibility: greater than 10 km
2021/01/25 16:20 EGBB 251620Z 25005KT CAVOK 03/M01 Q1012
EGXC - Coningsby Raf, United Kingdom
Distance from station: ENE 42mi, 68km
Updated: 25/01/2021 16:20
Clear
Clear
 Wind from W
Wind: W 24 km/h
Temperature: 5°C
Wind Chill: 1°C
Dew Point: 0°C
Humidity: 70%
Barometer: 1009 hPa
Summary: Clear
Visibility: greater than 10 km
2021/01/25 16:20 EGXC 251620Z 28013KT CAVOK 05/00 Q1009 NOSIG RMK BLU BLU